sensor_id;sensor_type;location;lat;lon;timestamp;P1;durP1;ratioP1;P2;durP2;ratioP2
52041;SDS011;38052;45.944;13.624;2022-12-10T00:00:07;18.95;;;11.90;;
52041;SDS011;38052;45.944;13.624;2022-12-10T00:02:33;17.85;;;12.23;;
52041;SDS011;38052;45.944;13.624;2022-12-10T00:05:00;23.27;;;14.70;;
52041;SDS011;38052;45.944;13.624;2022-12-10T00:07:26;16.20;;;12.95;;
52041;SDS011;38052;45.944;13.624;2022-12-10T00:09:52;18.85;;;13.45;;
52041;SDS011;38052;45.944;13.624;2022-12-10T00:12:19;18.08;;;12.45;;
52041;SDS011;38052;45.944;13.624;2022-12-10T00:14:45;20.50;;;13.05;;
52041;SDS011;38052;45.944;13.624;2022-12-10T00:17:12;21.90;;;14.27;;
52041;SDS011;38052;45.944;13.624;2022-12-10T00:19:39;22.88;;;13.18;;
52041;SDS011;38052;45.944;13.624;2022-12-10T00:22:06;21.45;;;14.93;;
52041;SDS011;38052;45.944;13.624;2022-12-10T00:24:32;20.08;;;13.65;;
52041;SDS011;38052;45.944;13.624;2022-12-10T00:26:59;23.83;;;13.70;;
52041;SDS011;38052;45.944;13.624;2022-12-10T00:29:25;21.55;;;14.10;;
52041;SDS011;38052;45.944;13.624;2022-12-10T00:31:52;21.88;;;13.25;;
52041;SDS011;38052;45.944;13.624;2022-12-10T00:34:18;22.85;;;13.80;;
52041;SDS011;38052;45.944;13.624;2022-12-10T00:36:46;20.55;;;14.23;;
52041;SDS011;38052;45.944;13.624;2022-12-10T00:39:15;24.38;;;13.90;;
52041;SDS011;38052;45.944;13.624;2022-12-10T00:41:41;20.55;;;14.02;;
52041;SDS011;38052;45.944;13.624;2022-12-10T00:44:07;20.30;;;14.70;;
52041;SDS011;38052;45.944;13.624;2022-12-10T00:46:34;19.92;;;14.25;;
52041;SDS011;38052;45.944;13.624;2022-12-10T00:49:01;20.65;;;13.60;;
52041;SDS011;38052;45.944;13.624;2022-12-10T00:51:28;22.33;;;14.95;;
52041;SDS011;38052;45.944;13.624;2022-12-10T00:53:55;21.95;;;14.15;;
52041;SDS011;38052;45.944;13.624;2022-12-10T00:56:22;18.88;;;13.75;;
52041;SDS011;38052;45.944;13.624;2022-12-10T00:58:49;24.50;;;13.77;;
52041;SDS011;38052;45.944;13.624;2022-12-10T01:03:44;21.42;;;14.35;;
52041;SDS011;38052;45.944;13.624;2022-12-10T01:06:13;20.85;;;15.10;;
52041;SDS011;38052;45.944;13.624;2022-12-10T01:08:39;23.42;;;14.65;;
52041;SDS011;38052;45.944;13.624;2022-12-10T01:11:06;23.23;;;15.85;;
52041;SDS011;38052;45.944;13.624;2022-12-10T01:13:32;21.85;;;14.90;;
52041;SDS011;38052;45.944;13.624;2022-12-10T01:16:02;20.60;;;15.40;;
52041;SDS011;38052;45.944;13.624;2022-12-10T01:18:29;21.93;;;15.77;;
52041;SDS011;38052;45.944;13.624;2022-12-10T01:20:59;21.05;;;15.70;;
52041;SDS011;38052;45.944;13.624;2022-12-10T01:23:26;24.25;;;15.93;;
52041;SDS011;38052;45.944;13.624;2022-12-10T01:25:53;19.67;;;14.68;;
52041;SDS011;38052;45.944;13.624;2022-12-10T01:28:19;19.10;;;14.20;;
52041;SDS011;38052;45.944;13.624;2022-12-10T01:30:46;23.42;;;14.70;;
52041;SDS011;38052;45.944;13.624;2022-12-10T01:33:13;19.65;;;14.70;;
52041;SDS011;38052;45.944;13.624;2022-12-10T01:35:40;22.60;;;15.55;;
52041;SDS011;38052;45.944;13.624;2022-12-10T01:38:06;21.60;;;15.13;;
52041;SDS011;38052;45.944;13.624;2022-12-10T01:40:36;26.98;;;16.85;;
52041;SDS011;38052;45.944;13.624;2022-12-10T01:43:03;23.15;;;16.90;;
52041;SDS011;38052;45.944;13.624;2022-12-10T01:45:30;21.55;;;15.70;;
52041;SDS011;38052;45.944;13.624;2022-12-10T01:47:57;22.67;;;15.30;;
52041;SDS011;38052;45.944;13.624;2022-12-10T01:50:23;21.17;;;15.98;;
52041;SDS011;38052;45.944;13.624;2022-12-10T01:52:50;20.85;;;15.55;;
52041;SDS011;38052;45.944;13.624;2022-12-10T01:58:20;22.40;;;16.80;;
52041;SDS011;38052;45.944;13.624;2022-12-10T02:00:53;25.75;;;17.02;;
52041;SDS011;38052;45.944;13.624;2022-12-10T02:03:31;24.20;;;18.00;;
52041;SDS011;38052;45.944;13.624;2022-12-10T02:06:06;23.83;;;18.63;;
52041;SDS011;38052;45.944;13.624;2022-12-10T02:08:40;28.15;;;17.77;;
52041;SDS011;38052;45.944;13.624;2022-12-10T02:11:20;26.85;;;18.55;;
52041;SDS011;38052;45.944;13.624;2022-12-10T02:14:02;25.45;;;19.02;;
52041;SDS011;38052;45.944;13.624;2022-12-10T02:16:34;24.80;;;17.73;;
52041;SDS011;38052;45.944;13.624;2022-12-10T02:21:38;23.48;;;18.23;;
52041;SDS011;38052;45.944;13.624;2022-12-10T02:24:08;24.23;;;18.92;;
52041;SDS011;38052;45.944;13.624;2022-12-10T02:26:58;27.85;;;17.83;;
52041;SDS011;38052;45.944;13.624;2022-12-10T02:29:27;27.40;;;18.65;;
52041;SDS011;38052;45.944;13.624;2022-12-10T02:32:11;27.23;;;19.48;;
52041;SDS011;38052;45.944;13.624;2022-12-10T02:34:40;30.95;;;21.08;;
52041;SDS011;38052;45.944;13.624;2022-12-10T02:37:09;29.70;;;20.70;;
52041;SDS011;38052;45.944;13.624;2022-12-10T02:39:42;27.70;;;19.30;;
52041;SDS011;38052;45.944;13.624;2022-12-10T02:42:09;28.45;;;20.98;;
52041;SDS011;38052;45.944;13.624;2022-12-10T02:44:37;27.95;;;19.75;;
52041;SDS011;38052;45.944;13.624;2022-12-10T02:47:06;31.77;;;22.88;;
52041;SDS011;38052;45.944;13.624;2022-12-10T02:49:33;29.63;;;21.15;;
52041;SDS011;38052;45.944;13.624;2022-12-10T02:52:12;26.55;;;21.27;;
52041;SDS011;38052;45.944;13.624;2022-12-10T02:59:40;24.63;;;17.85;;
52041;SDS011;38052;45.944;13.624;2022-12-10T03:02:21;24.45;;;16.88;;
52041;SDS011;38052;45.944;13.624;2022-12-10T03:04:57;24.25;;;18.08;;
52041;SDS011;38052;45.944;13.624;2022-12-10T03:07:35;22.10;;;16.05;;
52041;SDS011;38052;45.944;13.624;2022-12-10T03:10:11;23.23;;;17.73;;
52041;SDS011;38052;45.944;13.624;2022-12-10T03:12:45;27.17;;;18.52;;
52041;SDS011;38052;45.944;13.624;2022-12-10T03:15:13;26.20;;;17.88;;
52041;SDS011;38052;45.944;13.624;2022-12-10T03:17:40;25.35;;;18.55;;
52041;SDS011;38052;45.944;13.624;2022-12-10T03:20:08;25.30;;;17.92;;
52041;SDS011;38052;45.944;13.624;2022-12-10T03:22:37;26.52;;;19.42;;
52041;SDS011;38052;45.944;13.624;2022-12-10T03:25:04;28.70;;;19.85;;
52041;SDS011;38052;45.944;13.624;2022-12-10T03:27:31;26.17;;;20.20;;
52041;SDS011;38052;45.944;13.624;2022-12-10T03:29:58;27.75;;;19.70;;
52041;SDS011;38052;45.944;13.624;2022-12-10T03:32:26;34.08;;;20.17;;
52041;SDS011;38052;45.944;13.624;2022-12-10T03:34:54;31.60;;;20.40;;
52041;SDS011;38052;45.944;13.624;2022-12-10T03:37:22;32.70;;;20.75;;
52041;SDS011;38052;45.944;13.624;2022-12-10T03:39:48;31.13;;;21.67;;
52041;SDS011;38052;45.944;13.624;2022-12-10T03:42:15;39.78;;;20.95;;
52041;SDS011;38052;45.944;13.624;2022-12-10T03:44:42;36.15;;;22.27;;
52041;SDS011;38052;45.944;13.624;2022-12-10T03:47:10;32.72;;;20.75;;
52041;SDS011;38052;45.944;13.624;2022-12-10T03:49:38;33.33;;;21.92;;
52041;SDS011;38052;45.944;13.624;2022-12-10T03:52:04;32.35;;;20.25;;
52041;SDS011;38052;45.944;13.624;2022-12-10T03:54:31;30.50;;;20.50;;
52041;SDS011;38052;45.944;13.624;2022-12-10T03:56:57;33.88;;;21.52;;
52041;SDS011;38052;45.944;13.624;2022-12-10T03:59:24;41.85;;;21.45;;
52041;SDS011;38052;45.944;13.624;2022-12-10T04:01:50;32.47;;;21.35;;
52041;SDS011;38052;45.944;13.624;2022-12-10T04:04:17;36.03;;;18.95;;
52041;SDS011;38052;45.944;13.624;2022-12-10T04:06:43;28.42;;;17.65;;
52041;SDS011;38052;45.944;13.624;2022-12-10T04:09:10;30.48;;;17.08;;
52041;SDS011;38052;45.944;13.624;2022-12-10T04:11:37;34.08;;;17.52;;
52041;SDS011;38052;45.944;13.624;2022-12-10T04:14:03;42.08;;;18.08;;
52041;SDS011;38052;45.944;13.624;2022-12-10T04:16:48;35.15;;;18.13;;
52041;SDS011;38052;45.944;13.624;2022-12-10T04:19:15;31.25;;;15.65;;
52041;SDS011;38052;45.944;13.624;2022-12-10T04:21:42;31.13;;;17.88;;
52041;SDS011;38052;45.944;13.624;2022-12-10T04:24:28;33.33;;;15.95;;
52041;SDS011;38052;45.944;13.624;2022-12-10T04:27:16;32.05;;;16.33;;
52041;SDS011;38052;45.944;13.624;2022-12-10T04:32:11;27.38;;;13.50;;
52041;SDS011;38052;45.944;13.624;2022-12-10T04:34:37;29.83;;;17.08;;
52041;SDS011;38052;45.944;13.624;2022-12-10T04:37:04;32.15;;;17.08;;
52041;SDS011;38052;45.944;13.624;2022-12-10T04:39:30;33.20;;;16.52;;
52041;SDS011;38052;45.944;13.624;2022-12-10T04:41:56;30.55;;;15.50;;
52041;SDS011;38052;45.944;13.624;2022-12-10T04:44:23;32.78;;;16.95;;
52041;SDS011;38052;45.944;13.624;2022-12-10T04:46:50;27.73;;;16.08;;
52041;SDS011;38052;45.944;13.624;2022-12-10T04:49:17;30.02;;;16.83;;
52041;SDS011;38052;45.944;13.624;2022-12-10T04:51:43;26.83;;;15.60;;
52041;SDS011;38052;45.944;13.624;2022-12-10T04:54:10;25.48;;;14.98;;
52041;SDS011;38052;45.944;13.624;2022-12-10T04:56:36;25.63;;;14.85;;
52041;SDS011;38052;45.944;13.624;2022-12-10T04:59:03;24.90;;;14.75;;
52041;SDS011;38052;45.944;13.624;2022-12-10T05:01:29;25.52;;;16.58;;
52041;SDS011;38052;45.944;13.624;2022-12-10T05:04:04;19.13;;;12.73;;
52041;SDS011;38052;45.944;13.624;2022-12-10T05:06:31;19.10;;;13.35;;
52041;SDS011;38052;45.944;13.624;2022-12-10T05:08:58;21.67;;;14.10;;
52041;SDS011;38052;45.944;13.624;2022-12-10T05:11:26;18.38;;;11.73;;
52041;SDS011;38052;45.944;13.624;2022-12-10T05:13:53;19.25;;;12.25;;
52041;SDS011;38052;45.944;13.624;2022-12-10T05:16:20;17.23;;;10.63;;
52041;SDS011;38052;45.944;13.624;2022-12-10T05:18:46;17.23;;;10.60;;
52041;SDS011;38052;45.944;13.624;2022-12-10T05:21:14;15.57;;;9.98;;
52041;SDS011;38052;45.944;13.624;2022-12-10T05:23:45;17.60;;;11.20;;
52041;SDS011;38052;45.944;13.624;2022-12-10T05:26:19;14.32;;;9.93;;
52041;SDS011;38052;45.944;13.624;2022-12-10T05:28:47;16.25;;;10.68;;
52041;SDS011;38052;45.944;13.624;2022-12-10T05:31:14;15.05;;;10.35;;
52041;SDS011;38052;45.944;13.624;2022-12-10T05:33:41;15.57;;;9.98;;
52041;SDS011;38052;45.944;13.624;2022-12-10T05:36:08;18.65;;;11.13;;
52041;SDS011;38052;45.944;13.624;2022-12-10T05:38:35;17.50;;;11.40;;
52041;SDS011;38052;45.944;13.624;2022-12-10T05:41:05;17.23;;;11.55;;
52041;SDS011;38052;45.944;13.624;2022-12-10T05:43:31;14.63;;;10.75;;
52041;SDS011;38052;45.944;13.624;2022-12-10T05:46:01;15.23;;;11.25;;
52041;SDS011;38052;45.944;13.624;2022-12-10T05:48:28;15.23;;;10.80;;
52041;SDS011;38052;45.944;13.624;2022-12-10T05:50:55;15.15;;;10.75;;
52041;SDS011;38052;45.944;13.624;2022-12-10T05:53:22;20.05;;;10.68;;
52041;SDS011;38052;45.944;13.624;2022-12-10T05:55:48;15.85;;;11.52;;
52041;SDS011;38052;45.944;13.624;2022-12-10T05:58:14;13.80;;;10.35;;
52041;SDS011;38052;45.944;13.624;2022-12-10T06:00:41;11.77;;;9.13;;
52041;SDS011;38052;45.944;13.624;2022-12-10T06:03:08;15.48;;;8.88;;
52041;SDS011;38052;45.944;13.624;2022-12-10T06:05:38;10.93;;;8.48;;
52041;SDS011;38052;45.944;13.624;2022-12-10T06:08:05;13.88;;;9.07;;
52041;SDS011;38052;45.944;13.624;2022-12-10T06:10:35;13.82;;;8.93;;
52041;SDS011;38052;45.944;13.624;2022-12-10T06:13:04;11.00;;;7.15;;
52041;SDS011;38052;45.944;13.624;2022-12-10T06:15:31;15.60;;;8.02;;
52041;SDS011;38052;45.944;13.624;2022-12-10T06:17:58;9.70;;;6.75;;
52041;SDS011;38052;45.944;13.624;2022-12-10T06:20:25;10.75;;;7.80;;
52041;SDS011;38052;45.944;13.624;2022-12-10T06:22:51;11.38;;;8.02;;
52041;SDS011;38052;45.944;13.624;2022-12-10T06:25:17;12.50;;;9.25;;
52041;SDS011;38052;45.944;13.624;2022-12-10T06:27:44;13.65;;;10.18;;
52041;SDS011;38052;45.944;13.624;2022-12-10T06:30:11;12.30;;;8.88;;
52041;SDS011;38052;45.944;13.624;2022-12-10T06:32:38;13.88;;;9.02;;
52041;SDS011;38052;45.944;13.624;2022-12-10T06:35:04;16.60;;;9.77;;
52041;SDS011;38052;45.944;13.624;2022-12-10T06:37:31;13.00;;;9.30;;
52041;SDS011;38052;45.944;13.624;2022-12-10T06:39:58;12.02;;;8.10;;
52041;SDS011;38052;45.944;13.624;2022-12-10T06:42:25;12.13;;;8.07;;
52041;SDS011;38052;45.944;13.624;2022-12-10T06:44:51;12.07;;;7.22;;
52041;SDS011;38052;45.944;13.624;2022-12-10T06:47:18;12.35;;;7.38;;
52041;SDS011;38052;45.944;13.624;2022-12-10T06:49:45;9.13;;;7.25;;
52041;SDS011;38052;45.944;13.624;2022-12-10T06:52:12;10.43;;;8.15;;
52041;SDS011;38052;45.944;13.624;2022-12-10T06:54:39;11.93;;;8.80;;
52041;SDS011;38052;45.944;13.624;2022-12-10T06:57:05;12.20;;;9.10;;
52041;SDS011;38052;45.944;13.624;2022-12-10T06:59:32;13.50;;;9.55;;
52041;SDS011;38052;45.944;13.624;2022-12-10T07:01:59;16.65;;;9.98;;
52041;SDS011;38052;45.944;13.624;2022-12-10T07:04:25;12.20;;;9.75;;
52041;SDS011;38052;45.944;13.624;2022-12-10T07:06:51;13.60;;;10.50;;
52041;SDS011;38052;45.944;13.624;2022-12-10T07:09:18;14.93;;;11.10;;
52041;SDS011;38052;45.944;13.624;2022-12-10T07:11:45;18.42;;;12.07;;
52041;SDS011;38052;45.944;13.624;2022-12-10T07:14:15;22.60;;;14.23;;
52041;SDS011;38052;45.944;13.624;2022-12-10T07:16:42;25.30;;;15.40;;
52041;SDS011;38052;45.944;13.624;2022-12-10T07:19:09;27.23;;;16.77;;
52041;SDS011;38052;45.944;13.624;2022-12-10T07:21:36;25.88;;;17.05;;
52041;SDS011;38052;45.944;13.624;2022-12-10T07:24:04;29.58;;;18.50;;
52041;SDS011;38052;45.944;13.624;2022-12-10T07:26:32;32.95;;;17.08;;
52041;SDS011;38052;45.944;13.624;2022-12-10T07:28:59;38.95;;;20.88;;
52041;SDS011;38052;45.944;13.624;2022-12-10T07:31:26;37.47;;;22.02;;
52041;SDS011;38052;45.944;13.624;2022-12-10T07:33:52;43.70;;;22.80;;
52041;SDS011;38052;45.944;13.624;2022-12-10T07:36:19;40.38;;;22.20;;
52041;SDS011;38052;45.944;13.624;2022-12-10T07:38:47;42.83;;;23.65;;
52041;SDS011;38052;45.944;13.624;2022-12-10T07:41:14;44.05;;;23.17;;
52041;SDS011;38052;45.944;13.624;2022-12-10T07:43:41;46.40;;;22.67;;
52041;SDS011;38052;45.944;13.624;2022-12-10T07:48:34;64.78;;;27.73;;
52041;SDS011;38052;45.944;13.624;2022-12-10T07:51:01;73.03;;;30.08;;
52041;SDS011;38052;45.944;13.624;2022-12-10T07:53:27;70.85;;;30.45;;
52041;SDS011;38052;45.944;13.624;2022-12-10T07:55:54;91.82;;;29.20;;
52041;SDS011;38052;45.944;13.624;2022-12-10T07:58:20;72.25;;;25.73;;
52041;SDS011;38052;45.944;13.624;2022-12-10T08:00:47;67.20;;;27.85;;
52041;SDS011;38052;45.944;13.624;2022-12-10T08:03:14;60.10;;;25.15;;
52041;SDS011;38052;45.944;13.624;2022-12-10T08:05:41;53.50;;;26.58;;
52041;SDS011;38052;45.944;13.624;2022-12-10T08:08:07;58.35;;;27.35;;
52041;SDS011;38052;45.944;13.624;2022-12-10T08:10:34;45.55;;;23.77;;
52041;SDS011;38052;45.944;13.624;2022-12-10T08:13:00;48.20;;;23.42;;
52041;SDS011;38052;45.944;13.624;2022-12-10T08:15:26;41.17;;;21.65;;
52041;SDS011;38052;45.944;13.624;2022-12-10T08:17:56;36.83;;;20.52;;
52041;SDS011;38052;45.944;13.624;2022-12-10T08:20:23;39.10;;;22.40;;
52041;SDS011;38052;45.944;13.624;2022-12-10T08:22:50;30.33;;;19.40;;
52041;SDS011;38052;45.944;13.624;2022-12-10T08:25:16;36.75;;;19.42;;
52041;SDS011;38052;45.944;13.624;2022-12-10T08:27:43;33.20;;;19.30;;
52041;SDS011;38052;45.944;13.624;2022-12-10T08:30:10;28.05;;;19.65;;
52041;SDS011;38052;45.944;13.624;2022-12-10T08:32:36;33.38;;;19.15;;
52041;SDS011;38052;45.944;13.624;2022-12-10T08:35:03;36.25;;;21.77;;
52041;SDS011;38052;45.944;13.624;2022-12-10T08:37:31;39.10;;;22.38;;
52041;SDS011;38052;45.944;13.624;2022-12-10T08:39:58;40.75;;;24.77;;
52041;SDS011;38052;45.944;13.624;2022-12-10T08:42:24;30.42;;;20.40;;
52041;SDS011;38052;45.944;13.624;2022-12-10T08:44:51;32.03;;;20.00;;
52041;SDS011;38052;45.944;13.624;2022-12-10T08:47:18;38.65;;;23.17;;
52041;SDS011;38052;45.944;13.624;2022-12-10T08:49:44;32.38;;;20.30;;
52041;SDS011;38052;45.944;13.624;2022-12-10T08:52:11;23.98;;;16.08;;
52041;SDS011;38052;45.944;13.624;2022-12-10T08:54:38;22.13;;;15.98;;
52041;SDS011;38052;45.944;13.624;2022-12-10T08:57:05;22.42;;;12.43;;
52041;SDS011;38052;45.944;13.624;2022-12-10T08:59:31;21.65;;;11.48;;
52041;SDS011;38052;45.944;13.624;2022-12-10T09:01:58;19.25;;;13.07;;
52041;SDS011;38052;45.944;13.624;2022-12-10T09:04:25;17.73;;;11.48;;
52041;SDS011;38052;45.944;13.624;2022-12-10T09:06:51;18.38;;;11.43;;
52041;SDS011;38052;45.944;13.624;2022-12-10T09:09:18;18.77;;;10.68;;
52041;SDS011;38052;45.944;13.624;2022-12-10T09:11:44;18.52;;;9.82;;
52041;SDS011;38052;45.944;13.624;2022-12-10T09:14:11;15.77;;;10.25;;
52041;SDS011;38052;45.944;13.624;2022-12-10T09:16:38;13.98;;;9.25;;
52041;SDS011;38052;45.944;13.624;2022-12-10T09:19:04;12.68;;;9.07;;
52041;SDS011;38052;45.944;13.624;2022-12-10T09:21:30;12.00;;;9.52;;
52041;SDS011;38052;45.944;13.624;2022-12-10T09:23:57;19.23;;;10.35;;
52041;SDS011;38052;45.944;13.624;2022-12-10T09:26:24;16.17;;;10.77;;
52041;SDS011;38052;45.944;13.624;2022-12-10T09:28:51;14.25;;;9.48;;
52041;SDS011;38052;45.944;13.624;2022-12-10T09:31:18;15.68;;;10.20;;
52041;SDS011;38052;45.944;13.624;2022-12-10T09:33:45;13.48;;;10.13;;
52041;SDS011;38052;45.944;13.624;2022-12-10T09:36:13;14.48;;;10.73;;
52041;SDS011;38052;45.944;13.624;2022-12-10T09:38:40;13.50;;;9.73;;
52041;SDS011;38052;45.944;13.624;2022-12-10T09:46:10;13.68;;;8.95;;
52041;SDS011;38052;45.944;13.624;2022-12-10T09:51:10;13.48;;;8.50;;
52041;SDS011;38052;45.944;13.624;2022-12-10T09:53:38;10.63;;;7.88;;
52041;SDS011;38052;45.944;13.624;2022-12-10T09:56:08;10.20;;;9.13;;
52041;SDS011;38052;45.944;13.624;2022-12-10T09:58:37;10.25;;;8.40;;
52041;SDS011;38052;45.944;13.624;2022-12-10T10:01:04;10.52;;;8.55;;
52041;SDS011;38052;45.944;13.624;2022-12-10T10:03:31;12.52;;;8.18;;
52041;SDS011;38052;45.944;13.624;2022-12-10T10:05:58;9.93;;;7.82;;
52041;SDS011;38052;45.944;13.624;2022-12-10T10:08:29;14.15;;;8.35;;
52041;SDS011;38052;45.944;13.624;2022-12-10T10:10:58;12.93;;;8.18;;
52041;SDS011;38052;45.944;13.624;2022-12-10T10:15:53;11.48;;;7.63;;
52041;SDS011;38052;45.944;13.624;2022-12-10T10:18:34;10.90;;;9.15;;
52041;SDS011;38052;45.944;13.624;2022-12-10T10:21:01;10.35;;;8.15;;
52041;SDS011;38052;45.944;13.624;2022-12-10T10:23:30;13.50;;;8.20;;
52041;SDS011;38052;45.944;13.624;2022-12-10T10:25:56;11.75;;;8.20;;
52041;SDS011;38052;45.944;13.624;2022-12-10T10:28:22;10.25;;;8.13;;
52041;SDS011;38052;45.944;13.624;2022-12-10T10:30:50;11.23;;;8.55;;
52041;SDS011;38052;45.944;13.624;2022-12-10T10:33:17;12.18;;;8.98;;
52041;SDS011;38052;45.944;13.624;2022-12-10T10:35:48;12.63;;;10.57;;
52041;SDS011;38052;45.944;13.624;2022-12-10T10:38:19;11.43;;;9.25;;
52041;SDS011;38052;45.944;13.624;2022-12-10T10:40:57;15.02;;;11.98;;
52041;SDS011;38052;45.944;13.624;2022-12-10T10:43:39;18.85;;;13.57;;
52041;SDS011;38052;45.944;13.624;2022-12-10T10:46:11;20.60;;;14.27;;
52041;SDS011;38052;45.944;13.624;2022-12-10T10:48:37;21.33;;;15.57;;
52041;SDS011;38052;45.944;13.624;2022-12-10T10:51:06;18.83;;;15.30;;
52041;SDS011;38052;45.944;13.624;2022-12-10T10:53:35;19.33;;;15.52;;
52041;SDS011;38052;45.944;13.624;2022-12-10T10:56:13;23.00;;;16.02;;
52041;SDS011;38052;45.944;13.624;2022-12-10T10:58:47;20.00;;;14.95;;
52041;SDS011;38052;45.944;13.624;2022-12-10T11:01:14;23.38;;;14.65;;
52041;SDS011;38052;45.944;13.624;2022-12-10T11:03:45;18.10;;;13.13;;
52041;SDS011;38052;45.944;13.624;2022-12-10T11:06:12;17.63;;;12.55;;
52041;SDS011;38052;45.944;13.624;2022-12-10T11:08:38;17.58;;;13.35;;
52041;SDS011;38052;45.944;13.624;2022-12-10T11:11:06;18.20;;;12.65;;
52041;SDS011;38052;45.944;13.624;2022-12-10T11:13:36;20.00;;;12.07;;
52041;SDS011;38052;45.944;13.624;2022-12-10T11:18:37;17.23;;;10.98;;
52041;SDS011;38052;45.944;13.624;2022-12-10T11:23:43;17.25;;;12.57;;
52041;SDS011;38052;45.944;13.624;2022-12-10T11:26:33;19.20;;;14.48;;
52041;SDS011;38052;45.944;13.624;2022-12-10T11:33:58;15.10;;;11.38;;
52041;SDS011;38052;45.944;13.624;2022-12-10T11:46:56;10.93;;;8.27;;
52041;SDS011;38052;45.944;13.624;2022-12-10T11:49:28;10.85;;;8.30;;
52041;SDS011;38052;45.944;13.624;2022-12-10T11:57:27;6.15;;;4.80;;
52041;SDS011;38052;45.944;13.624;2022-12-10T12:00:05;5.60;;;3.67;;
52041;SDS011;38052;45.944;13.624;2022-12-10T12:07:40;3.10;;;2.22;;
52041;SDS011;38052;45.944;13.624;2022-12-10T12:10:14;3.65;;;1.75;;
52041;SDS011;38052;45.944;13.624;2022-12-10T12:13:00;3.20;;;1.70;;
52041;SDS011;38052;45.944;13.624;2022-12-10T12:15:33;2.92;;;2.03;;
52041;SDS011;38052;45.944;13.624;2022-12-10T12:18:04;5.13;;;2.38;;
52041;SDS011;38052;45.944;13.624;2022-12-10T12:20:33;1.80;;;1.50;;
52041;SDS011;38052;45.944;13.624;2022-12-10T12:25:37;4.55;;;2.22;;
52041;SDS011;38052;45.944;13.624;2022-12-10T12:28:14;2.58;;;1.85;;
52041;SDS011;38052;45.944;13.624;2022-12-10T12:30:43;3.88;;;1.67;;
52041;SDS011;38052;45.944;13.624;2022-12-10T12:33:20;4.20;;;1.20;;
52041;SDS011;38052;45.944;13.624;2022-12-10T12:35:50;3.30;;;1.10;;
52041;SDS011;38052;45.944;13.624;2022-12-10T12:38:30;3.40;;;1.08;;
52041;SDS011;38052;45.944;13.624;2022-12-10T12:43:28;3.20;;;1.30;;
52041;SDS011;38052;45.944;13.624;2022-12-10T12:45:59;1.98;;;1.10;;
52041;SDS011;38052;45.944;13.624;2022-12-10T12:51:06;2.03;;;1.25;;
52041;SDS011;38052;45.944;13.624;2022-12-10T12:53:35;2.72;;;1.38;;
52041;SDS011;38052;45.944;13.624;2022-12-10T12:56:03;3.05;;;1.42;;
52041;SDS011;38052;45.944;13.624;2022-12-10T13:01:00;4.00;;;2.40;;
52041;SDS011;38052;45.944;13.624;2022-12-10T13:03:35;7.40;;;2.05;;
52041;SDS011;38052;45.944;13.624;2022-12-10T13:06:13;3.38;;;1.70;;
52041;SDS011;38052;45.944;13.624;2022-12-10T13:08:46;4.40;;;1.77;;
52041;SDS011;38052;45.944;13.624;2022-12-10T13:12:15;2.72;;;1.70;;
52041;SDS011;38052;45.944;13.624;2022-12-10T13:32:21;3.97;;;2.65;;
52041;SDS011;38052;45.944;13.624;2022-12-10T13:37:52;4.53;;;2.20;;
52041;SDS011;38052;45.944;13.624;2022-12-10T13:40:26;5.47;;;3.00;;
52041;SDS011;38052;45.944;13.624;2022-12-10T13:42:56;6.43;;;3.05;;
52041;SDS011;38052;45.944;13.624;2022-12-10T13:45:40;4.82;;;2.13;;
52041;SDS011;38052;45.944;13.624;2022-12-10T13:53:24;7.88;;;2.38;;
52041;SDS011;38052;45.944;13.624;2022-12-10T13:56:40;5.00;;;2.80;;
52041;SDS011;38052;45.944;13.624;2022-12-10T14:06:15;5.25;;;1.55;;
52041;SDS011;38052;45.944;13.624;2022-12-10T14:11:37;5.03;;;1.65;;
52041;SDS011;38052;45.944;13.624;2022-12-10T14:14:05;2.47;;;1.92;;
52041;SDS011;38052;45.944;13.624;2022-12-10T14:16:32;2.70;;;1.60;;
52041;SDS011;38052;45.944;13.624;2022-12-10T14:19:01;4.60;;;2.13;;
52041;SDS011;38052;45.944;13.624;2022-12-10T14:21:33;2.65;;;1.88;;
52041;SDS011;38052;45.944;13.624;2022-12-10T14:24:00;3.97;;;2.72;;
52041;SDS011;38052;45.944;13.624;2022-12-10T14:26:35;5.03;;;2.20;;
52041;SDS011;38052;45.944;13.624;2022-12-10T14:29:16;3.47;;;1.65;;
52041;SDS011;38052;45.944;13.624;2022-12-10T14:31:45;3.88;;;1.85;;
52041;SDS011;38052;45.944;13.624;2022-12-10T14:34:14;3.30;;;1.75;;
52041;SDS011;38052;45.944;13.624;2022-12-10T14:36:45;5.60;;;2.05;;
52041;SDS011;38052;45.944;13.624;2022-12-10T14:39:16;2.80;;;1.70;;
52041;SDS011;38052;45.944;13.624;2022-12-10T14:41:43;4.35;;;3.00;;
52041;SDS011;38052;45.944;13.624;2022-12-10T14:44:14;6.68;;;4.53;;
52041;SDS011;38052;45.944;13.624;2022-12-10T14:46:41;6.93;;;5.00;;
52041;SDS011;38052;45.944;13.624;2022-12-10T14:49:12;5.57;;;4.03;;
52041;SDS011;38052;45.944;13.624;2022-12-10T14:51:41;5.00;;;3.28;;
52041;SDS011;38052;45.944;13.624;2022-12-10T14:57:28;3.35;;;1.70;;
52041;SDS011;38052;45.944;13.624;2022-12-10T15:02:33;3.10;;;2.00;;
52041;SDS011;38052;45.944;13.624;2022-12-10T15:07:30;8.60;;;3.42;;
52041;SDS011;38052;45.944;13.624;2022-12-10T15:09:59;3.45;;;2.35;;
52041;SDS011;38052;45.944;13.624;2022-12-10T15:12:43;3.58;;;1.88;;
52041;SDS011;38052;45.944;13.624;2022-12-10T15:17:43;7.75;;;5.25;;
52041;SDS011;38052;45.944;13.624;2022-12-10T15:20:10;6.93;;;3.63;;
52041;SDS011;38052;45.944;13.624;2022-12-10T15:22:44;4.10;;;1.70;;
52041;SDS011;38052;45.944;13.624;2022-12-10T15:25:28;2.33;;;1.08;;
52041;SDS011;38052;45.944;13.624;2022-12-10T15:27:56;3.72;;;0.90;;
52041;SDS011;38052;45.944;13.624;2022-12-10T15:30:43;1.55;;;0.98;;
52041;SDS011;38052;45.944;13.624;2022-12-10T15:33:23;2.13;;;0.90;;
52041;SDS011;38052;45.944;13.624;2022-12-10T15:35:53;1.58;;;0.70;;
52041;SDS011;38052;45.944;13.624;2022-12-10T15:38:19;1.85;;;0.70;;
52041;SDS011;38052;45.944;13.624;2022-12-10T15:40:46;1.20;;;0.50;;
52041;SDS011;38052;45.944;13.624;2022-12-10T15:45:48;4.30;;;1.13;;
52041;SDS011;38052;45.944;13.624;2022-12-10T15:48:15;2.15;;;0.60;;
52041;SDS011;38052;45.944;13.624;2022-12-10T15:50:42;5.95;;;0.90;;
52041;SDS011;38052;45.944;13.624;2022-12-10T15:53:12;1.55;;;0.40;;
52041;SDS011;38052;45.944;13.624;2022-12-10T15:55:40;1.10;;;0.40;;
52041;SDS011;38052;45.944;13.624;2022-12-10T15:58:10;1.90;;;0.80;;
52041;SDS011;38052;45.944;13.624;2022-12-10T16:00:37;2.07;;;0.70;;
52041;SDS011;38052;45.944;13.624;2022-12-10T16:05:36;1.52;;;0.57;;
52041;SDS011;38052;45.944;13.624;2022-12-10T16:08:36;3.45;;;1.58;;
52041;SDS011;38052;45.944;13.624;2022-12-10T16:11:00;3.20;;;1.77;;
52041;SDS011;38052;45.944;13.624;2022-12-10T16:13:28;3.03;;;1.75;;
52041;SDS011;38052;45.944;13.624;2022-12-10T16:15:57;3.55;;;1.80;;
52041;SDS011;38052;45.944;13.624;2022-12-10T16:18:24;3.65;;;1.40;;
52041;SDS011;38052;45.944;13.624;2022-12-10T16:20:51;2.20;;;0.68;;
52041;SDS011;38052;45.944;13.624;2022-12-10T16:23:17;2.80;;;1.38;;
52041;SDS011;38052;45.944;13.624;2022-12-10T16:25:43;1.95;;;1.15;;
52041;SDS011;38052;45.944;13.624;2022-12-10T16:28:13;5.03;;;1.98;;